createdAt,value
2023-05-06T11:00:40.988Z,3.50
2023-05-06T11:03:11.007Z,5.17
2023-05-06T11:05:48.442Z,3.37
2023-05-06T11:08:16.015Z,3.20
2023-05-06T11:10:42.662Z,4.00
2023-05-06T11:13:20.253Z,4.27
2023-05-06T11:15:47.336Z,4.87
2023-05-06T11:18:33.892Z,3.87
2023-05-06T11:21:03.720Z,8.10
2023-05-06T11:23:59.205Z,3.70
2023-05-06T11:26:26.316Z,2.93
2023-05-06T11:28:53.129Z,3.47
2023-05-06T11:31:22.745Z,2.73
2023-05-06T11:33:52.703Z,2.20
2023-05-06T11:36:21.149Z,2.97
2023-05-06T11:38:52.901Z,5.57
2023-05-06T11:41:23.007Z,3.83
2023-05-06T11:43:51.582Z,5.17
2023-05-06T11:46:23.125Z,3.63
2023-05-06T11:48:50.567Z,4.90
2023-05-06T11:51:22.549Z,5.67
2023-05-06T11:53:49.403Z,5.57
2023-05-06T11:56:16.342Z,6.77
2023-05-06T11:58:43.895Z,7.00
2023-05-06T12:01:11.871Z,4.30
2023-05-06T12:03:38.586Z,4.60
2023-05-06T12:06:05.665Z,4.47
2023-05-06T12:08:34.482Z,4.77
2023-05-06T12:11:04.476Z,5.00
2023-05-06T12:13:31.445Z,4.23
2023-05-06T12:16:01.618Z,4.40
2023-05-06T12:18:28.818Z,4.00
2023-05-06T12:21:02.660Z,6.83
2023-05-06T12:23:29.759Z,5.37
2023-05-06T12:26:04.874Z,6.73
2023-05-06T12:28:33.283Z,6.20
2023-05-06T12:31:17.503Z,5.07
2023-05-06T12:33:45.248Z,5.00
2023-05-06T12:36:12.100Z,6.40
2023-05-06T12:38:39.027Z,5.97
2023-05-06T12:41:06.975Z,5.17
2023-05-06T12:43:33.805Z,4.93
2023-05-06T12:46:07.948Z,6.20
2023-05-06T12:48:35.390Z,4.30
2023-05-06T12:51:18.056Z,4.77
2023-05-06T12:53:45.303Z,5.83
2023-05-06T12:56:11.928Z,8.33
2023-05-06T12:58:39.721Z,6.93
2023-05-06T13:01:09.358Z,6.03
2023-05-06T13:03:38.835Z,6.70
2023-05-06T13:06:07.767Z,5.57
2023-05-06T13:08:35.787Z,5.40
2023-05-06T13:11:03.831Z,4.13
2023-05-06T13:13:30.913Z,4.40
2023-05-06T13:15:57.626Z,5.40
2023-05-06T13:18:24.350Z,5.73
2023-05-06T13:20:52.766Z,4.00
2023-05-06T13:23:19.712Z,3.50
2023-05-06T13:26:02.772Z,6.07
2023-05-06T13:28:31.991Z,5.63
2023-05-06T13:30:58.746Z,5.50
2023-05-06T13:33:25.522Z,4.67
2023-05-06T13:35:52.211Z,4.87
2023-05-06T13:38:19.075Z,4.00
2023-05-06T13:40:48.147Z,6.80
2023-05-06T13:43:15.651Z,3.90
2023-05-06T13:45:44.604Z,3.50
2023-05-06T13:48:12.883Z,3.13
2023-05-06T13:50:46.417Z,5.23
2023-05-06T13:53:14.056Z,3.97
2023-05-06T13:55:41.921Z,3.70
2023-05-06T13:58:08.928Z,9.10
2023-05-06T14:00:36.241Z,5.90
2023-05-06T14:03:04.316Z,3.27
2023-05-06T14:05:32.054Z,8.07
2023-05-06T14:07:58.709Z,4.00
2023-05-06T14:10:25.539Z,6.43
2023-05-06T14:12:52.391Z,5.03
2023-05-06T14:15:19.085Z,2.90
2023-05-06T14:17:45.921Z,3.40
2023-05-06T14:20:13.742Z,3.50
2023-05-06T14:22:41.257Z,5.20
2023-05-06T14:25:09.237Z,4.30
2023-05-06T14:27:37.674Z,3.60
2023-05-06T14:30:09.394Z,5.20
2023-05-06T14:32:36.829Z,7.20
2023-05-06T14:35:03.962Z,8.13
2023-05-06T14:37:31.349Z,4.50
2023-05-06T14:39:59.766Z,4.30
2023-05-06T14:42:28.738Z,6.20
2023-05-06T14:44:55.385Z,4.70
2023-05-06T14:47:22.401Z,15.50
2023-05-06T14:49:49.280Z,3.67
2023-05-06T14:52:15.902Z,4.83
2023-05-06T14:54:42.861Z,4.90
2023-05-06T14:57:10.000Z,4.57
2023-05-06T14:59:37.462Z,4.60
2023-05-06T15:02:06.909Z,5.20
2023-05-06T15:04:34.416Z,4.50
2023-05-06T15:07:01.043Z,5.33
2023-05-06T15:09:27.722Z,4.40
2023-05-06T15:11:54.470Z,4.27
2023-05-06T15:14:21.244Z,5.03
2023-05-06T15:16:47.941Z,4.50
2023-05-06T15:19:14.678Z,4.60
2023-05-06T15:21:41.265Z,4.17
2023-05-06T15:24:09.303Z,5.87
2023-05-06T15:26:35.887Z,4.33
2023-05-06T15:29:02.468Z,4.60
2023-05-06T15:31:38.954Z,4.97
2023-05-06T15:34:09.324Z,4.40
2023-05-06T15:36:36.110Z,4.40
2023-05-06T15:39:03.310Z,3.70
2023-05-06T15:41:32.847Z,6.13
2023-05-06T15:44:01.083Z,4.40
2023-05-06T15:46:28.915Z,5.50
2023-05-06T15:49:17.417Z,4.10
2023-05-06T15:51:42.626Z,4.00
2023-05-06T15:54:09.218Z,5.37
2023-05-06T15:56:40.626Z,3.80
2023-05-06T15:59:08.562Z,5.40
2023-05-06T16:01:57.350Z,5.20
2023-05-06T16:04:22.610Z,6.03
2023-05-06T16:06:50.010Z,5.87
2023-05-06T16:09:16.799Z,4.20
2023-05-06T16:11:43.426Z,6.17
2023-05-06T16:14:10.382Z,6.07
2023-05-06T16:16:37.298Z,5.73
2023-05-06T16:19:04.380Z,11.03
2023-05-06T16:21:31.685Z,7.60
2023-05-06T16:23:58.408Z,13.90
2023-05-06T16:26:25.884Z,11.23
2023-05-06T16:28:53.631Z,18.27
2023-05-06T16:31:20.871Z,13.90
2023-05-06T16:33:47.698Z,19.77
2023-05-06T16:36:14.377Z,10.53
2023-05-06T16:38:41.029Z,8.77
2023-05-06T16:41:08.484Z,16.50
2023-05-06T16:43:35.080Z,17.90
2023-05-06T16:46:01.719Z,5.50
2023-05-06T16:48:28.706Z,7.10
2023-05-06T16:50:55.486Z,6.80
2023-05-06T16:53:22.099Z,6.07
2023-05-06T16:55:49.923Z,6.30
2023-05-06T16:58:16.599Z,16.43
2023-05-06T17:00:43.402Z,15.33
2023-05-06T17:03:10.357Z,16.07
2023-05-06T17:05:37.268Z,11.27
2023-05-06T17:08:04.253Z,21.03
2023-05-06T17:10:30.914Z,18.83
2023-05-06T17:12:58.284Z,14.67
2023-05-06T17:15:25.690Z,12.77
2023-05-06T17:17:52.776Z,13.10
2023-05-06T17:20:20.011Z,8.50
2023-05-06T17:22:47.030Z,10.13
2023-05-06T17:25:14.209Z,11.27
2023-05-06T17:27:41.114Z,11.23
2023-05-06T17:30:09.835Z,10.40
2023-05-06T17:32:36.912Z,8.00
2023-05-06T17:35:03.933Z,8.50
2023-05-06T17:37:31.200Z,7.60
2023-05-06T17:39:59.906Z,7.63
2023-05-06T17:42:27.423Z,12.87
2023-05-06T17:44:54.505Z,13.00
2023-05-06T17:47:22.774Z,7.70
2023-05-06T17:49:53.351Z,9.00
2023-05-06T17:52:20.828Z,6.60
2023-05-06T17:55:01.424Z,7.03
2023-05-06T17:57:37.154Z,10.30
2023-05-06T18:00:04.267Z,12.70
2023-05-06T18:02:31.049Z,13.57
2023-05-06T18:04:57.750Z,14.83
2023-05-06T18:07:24.405Z,13.00
